aviador You're here:

KBIL Decoded Metar

BILLINGS in MT, USA
Report Time2018-01-18 20:53:00
UTC Time2018-01-18 21:40:18
Flight Rules vfr VFR
Wind250° at 17 Gusting to 23 kt
W.Decomp.*RWY 25: 16.5 kt HW 4.1 kt LCW
RWY 28: 12.2 kt HW 11.8 kt LCW
W.Rank250° ranks 4
Current wind is above 250° avg. (10.5)
Visibility9999 m
Phenomena:N/A
Clouds:Few 095 Hf
Scattered 120 Hf
Broken 180 Hf
Expected CloudBase > 4,400 ft AGL from Temp-Dew spread
Ceiling18,000 ft
Temp08°C (ISA 0)
Dew Point-3°C (46% RH)
AAT-0.5°C
QNH1007 hPa
Density Alt3,871 ft
Elevation3,579 ft
Report Wrong Elevation
Raw Report
KBIL 182053Z 25017G23KT 10SM FEW095 SCT120 BKN180 08/M03 A2974 RMK
AO2 SLP076 ACSL DSNT S-N T00831028 56022=

Extra information for KBIL:More info

Metar Taf Metar & Taf Last 4 Metars F.Rules Stats Wind Profile Meteogram Temp Stats Airport Information Weather charts Add Link Nearby VenuesMetar ALERT Operation Metar Decoded Social comments

AIRNAV info for KBIL